Terminal Aerodrome Forecast
Issued by NWS

Home | Current Version | Previous Version | Text Only | Print | Product List | Glossary On
Versions: 1 2 3 4 5 6 7 8 9 10 11 12 13 14 15 16 17 18 19 20
616
FTUS41 KBGM 250422 AAC
TAFITH
TAF AMD
KITH 250422Z 2504/2524 18008KT P6SM -SHRA BKN040 WS020/25035KT
     FM250600 VRB03KT 5SM BR OVC015
      TEMPO 2506/2510 2SM -RA BR OVC007
     FM251000 VRB03KT 4SM BR OVC008
     FM251700 36005KT 3SM -RA OVC008=

USA.gov is the U.S. government's official web portal to all federal, state and local government web resources and services.